X  Fermer Données météorologiques d'aviation de Metar     EHKD De Kooy Airport
Température
43°F Température
36°F Point de rosée
76% Humidité



Vent
10 MPH
16 KM/H
4 M/S
9 KTS



320°
NO
Conditions actuelles

Partiellement nuageux Partiellement nuageux
Pression 1010.84 (hPa) - 29.85 (inHg)
Visibilité 6 (mile) - 9.7 (km)
Aéroport
Code de l'aéroport EHKD

Emplacement: De Kooy Airport
Distance: 34 (mi)

Metar:
EHKD 240155Z AUTO 32009KT 270V030 9999 FEW016CB SCT027 BKN030 06/02 Q1011 BLU

Temps: 24-04-2024 03:55 CEST